Terminal Aerodrome Forecast
Issued by NWS

Home | Current Version | Previous Version | Graphics & Text | Print | Product List | Glossary On
Versions: 1 2 3 4 5 6 7 8 9 10 11 12 13 14 15 16 17
000
FTUS43 KABR 210946 AAB
TAFATY
TAF AMD
KATY 210946Z 2110/2206 31023G32KT P6SM SCT025
      TEMPO 2110/2113 BKN025
     FM211300 33022G31KT P6SM FEW030
     FM212200 31009KT P6SM SKC
     FM220000 VRB05KT P6SM SKC=

USA.gov is the U.S. government's official web portal to all federal, state and local government web resources and services.